createdAt,value
2016-10-25T00:03:11.608Z,0
2016-10-25T00:08:08.158Z,0
2016-10-25T00:13:04.745Z,0
2016-10-25T00:18:01.257Z,0
2016-10-25T00:22:57.736Z,0
2016-10-25T00:27:54.085Z,0
2016-10-25T00:32:52.881Z,0
2016-10-25T00:42:49.308Z,0
2016-10-25T00:47:45.723Z,0
2016-10-25T00:52:42.776Z,0
2016-10-25T00:57:39.082Z,0
2016-10-25T01:02:36.766Z,0
2016-10-25T01:07:32.840Z,0
2016-10-25T01:12:29.245Z,0
2016-10-25T01:17:26.598Z,0
2016-10-25T01:22:23.769Z,0
2016-10-25T01:27:20.576Z,0
2016-10-25T01:32:17.100Z,0
2016-10-25T01:37:13.529Z,0
2016-10-25T01:42:10.016Z,0
2016-10-25T01:47:06.790Z,0
2016-10-25T01:52:03.144Z,0
2016-10-25T01:56:59.520Z,0
2016-10-25T02:01:56.095Z,0
2016-10-25T02:06:53.709Z,0
2016-10-25T02:11:49.840Z,0
2016-10-25T02:16:46.471Z,0
2016-10-25T02:21:42.714Z,0
2016-10-25T02:26:39.426Z,0
2016-10-25T02:31:36.034Z,0
2016-10-25T02:36:33.108Z,0
2016-10-25T02:41:29.608Z,0
2016-10-25T02:46:26.003Z,0
2016-10-25T02:51:22.515Z,0
2016-10-25T02:56:18.845Z,0
2016-10-25T03:01:15.347Z,0
2016-10-25T03:06:12.051Z,0
2016-10-25T03:11:08.351Z,0
2016-10-25T03:16:05.322Z,0
2016-10-25T03:21:02.651Z,0
2016-10-25T03:25:59.190Z,0
2016-10-25T03:30:56.694Z,0
2016-10-25T03:35:53.072Z,0
2016-10-25T03:40:49.559Z,0
2016-10-25T03:45:46.861Z,0
2016-10-25T03:50:43.539Z,0
2016-10-25T03:55:40.093Z,0
2016-10-25T04:00:36.874Z,0
2016-10-25T04:05:34.019Z,0
2016-10-25T04:10:30.420Z,0
2016-10-25T04:15:26.887Z,0
2016-10-25T04:20:23.297Z,0
2016-10-25T04:25:20.100Z,0
2016-10-25T04:30:17.217Z,0
2016-10-25T04:35:13.776Z,0
2016-10-25T04:40:10.260Z,0
2016-10-25T04:45:07.160Z,0
2016-10-25T04:50:04.362Z,0
2016-10-25T04:55:00.781Z,0
2016-10-25T04:59:57.630Z,0
2016-10-25T05:04:53.901Z,0
2016-10-25T05:09:50.351Z,0
2016-10-25T05:14:46.907Z,0
2016-10-25T05:19:43.335Z,0
2016-10-25T05:24:39.890Z,0
2016-10-25T05:29:36.473Z,0
2016-10-25T05:34:33.061Z,0
2016-10-25T05:39:29.761Z,0
2016-10-25T05:44:26.647Z,0
2016-10-25T05:49:23.111Z,0
2016-10-25T05:54:19.443Z,4
2016-10-25T05:59:15.968Z,8
2016-10-25T06:04:12.479Z,12
2016-10-25T06:09:08.990Z,24
2016-10-25T06:14:05.664Z,36
2016-10-25T06:19:01.990Z,44
2016-10-25T06:23:58.645Z,80
2016-10-25T06:28:55.065Z,96
2016-10-25T06:33:51.341Z,112
2016-10-25T06:38:48.268Z,100
2016-10-25T06:43:44.838Z,116
2016-10-25T06:48:41.439Z,132
2016-10-25T06:53:38.128Z,188
2016-10-25T06:58:35.318Z,224
2016-10-25T07:03:31.636Z,232
2016-10-25T07:08:29.410Z,284
2016-10-25T07:13:25.693Z,304
2016-10-25T07:18:22.348Z,296
2016-10-25T07:23:18.764Z,412
2016-10-25T07:28:15.322Z,556
2016-10-25T07:33:11.830Z,580
2016-10-25T07:38:08.296Z,600
2016-10-25T07:43:04.926Z,588
2016-10-25T07:48:01.386Z,588
2016-10-25T07:52:57.937Z,544
2016-10-25T07:57:54.999Z,532
2016-10-25T08:02:51.697Z,572
2016-10-25T08:07:50.747Z,732
2016-10-25T08:12:46.497Z,792
2016-10-25T08:17:43.134Z,820
2016-10-25T08:22:40.058Z,1232
2016-10-25T08:27:36.625Z,1232
2016-10-25T08:32:33.090Z,1492
2016-10-25T08:37:29.316Z,1400
2016-10-25T08:42:25.978Z,1844
2016-10-25T08:47:23.066Z,2852
2016-10-25T08:52:20.411Z,2392
2016-10-25T08:57:17.681Z,2880
2016-10-25T09:02:14.289Z,3144
2016-10-25T09:07:12.934Z,4096
2016-10-25T09:12:08.694Z,3232
2016-10-25T09:17:05.253Z,2648
2016-10-25T09:22:02.199Z,2992
2016-10-25T09:26:58.582Z,2820
2016-10-25T09:31:55.236Z,2616
2016-10-25T09:36:51.821Z,2460
2016-10-25T09:41:48.416Z,4136
2016-10-25T09:46:45.129Z,3028
2016-10-25T09:51:42.326Z,2656
2016-10-25T09:56:38.817Z,4392
2016-10-25T10:01:35.387Z,4028
2016-10-25T10:06:31.916Z,2620
2016-10-25T10:11:28.362Z,1820
2016-10-25T10:16:24.727Z,3196
2016-10-25T10:21:21.584Z,3812
2016-10-25T10:26:18.185Z,3756
2016-10-25T10:31:14.252Z,3388
2016-10-25T10:36:11.380Z,3016
2016-10-25T10:41:07.897Z,3532
2016-10-25T10:46:04.905Z,4492
2016-10-25T10:51:01.671Z,4272
2016-10-25T10:55:58.426Z,4052
2016-10-25T11:00:55.080Z,2188
2016-10-25T11:05:51.524Z,1664
2016-10-25T11:10:48.004Z,1956
2016-10-25T11:15:44.099Z,2320
2016-10-25T11:20:41.414Z,2476
2016-10-25T11:25:38.086Z,2280
2016-10-25T11:30:34.662Z,3276
2016-10-25T11:35:31.558Z,3536
2016-10-25T11:40:28.098Z,3348
2016-10-25T11:45:24.753Z,3268
2016-10-25T11:50:21.334Z,2664
2016-10-25T11:55:17.812Z,2196
2016-10-25T12:00:14.140Z,1728
2016-10-25T12:05:10.938Z,2028
2016-10-25T12:10:07.100Z,2176
2016-10-25T12:15:03.896Z,1892
2016-10-25T12:20:00.654Z,1836
2016-10-25T12:24:57.121Z,1408
2016-10-25T12:29:53.516Z,2380
2016-10-25T12:34:50.273Z,2096
2016-10-25T12:39:46.873Z,1792
2016-10-25T12:44:43.426Z,1512
2016-10-25T12:49:39.808Z,1532
2016-10-25T12:54:37.172Z,1448
2016-10-25T12:59:33.424Z,1852
2016-10-25T13:04:31.217Z,1932
2016-10-25T13:09:27.271Z,2456
2016-10-25T13:14:24.042Z,2092
2016-10-25T13:19:20.463Z,1260
2016-10-25T13:24:16.808Z,1156
2016-10-25T13:29:13.257Z,1452
2016-10-25T13:34:09.762Z,2308
2016-10-25T13:39:06.558Z,2264
2016-10-25T13:44:03.050Z,1824
2016-10-25T13:48:59.522Z,1336
2016-10-25T13:53:56.082Z,1076
2016-10-25T13:58:52.483Z,1036
2016-10-25T14:03:49.160Z,900
2016-10-25T14:08:46.571Z,956
2016-10-25T14:13:42.444Z,1308
2016-10-25T14:18:39.303Z,884
2016-10-25T14:23:36.205Z,864
2016-10-25T14:28:32.700Z,1080
2016-10-25T14:33:29.268Z,960
2016-10-25T14:38:25.794Z,716
2016-10-25T14:43:22.153Z,740
2016-10-25T14:48:18.784Z,752
2016-10-25T14:53:15.237Z,764
2016-10-25T14:58:11.754Z,632
2016-10-25T15:03:08.368Z,656
2016-10-25T15:08:04.887Z,432
2016-10-25T15:13:01.364Z,320
2016-10-25T15:17:57.815Z,336
2016-10-25T15:22:54.390Z,228
2016-10-25T15:27:50.965Z,224
2016-10-25T15:32:47.936Z,164
2016-10-25T15:37:46.881Z,172
2016-10-25T15:42:42.804Z,156
2016-10-25T15:47:39.697Z,120
2016-10-25T15:52:35.995Z,100
2016-10-25T15:57:32.982Z,104
2016-10-25T16:02:30.764Z,100
2016-10-25T16:07:27.154Z,68
2016-10-25T16:12:23.559Z,40
2016-10-25T16:17:20.203Z,28
2016-10-25T16:22:16.786Z,16
2016-10-25T16:27:13.767Z,8
2016-10-25T16:32:10.241Z,4
2016-10-25T16:37:07.286Z,0
2016-10-25T16:42:03.767Z,0
2016-10-25T16:47:00.426Z,0
2016-10-25T16:51:56.724Z,0
2016-10-25T16:56:53.088Z,0
2016-10-25T17:01:50.000Z,0
2016-10-25T17:06:46.488Z,0
2016-10-25T17:11:43.089Z,0
2016-10-25T17:16:40.047Z,0
2016-10-25T17:21:37.108Z,0
2016-10-25T17:26:33.625Z,0
2016-10-25T17:31:29.919Z,0
2016-10-25T17:36:27.108Z,0
2016-10-25T17:41:23.550Z,0
2016-10-25T17:46:21.515Z,0
2016-10-25T17:51:18.314Z,0
2016-10-25T17:56:14.811Z,0
2016-10-25T18:01:11.711Z,0
2016-10-25T18:06:07.799Z,0
2016-10-25T18:11:04.657Z,0
2016-10-25T18:16:00.862Z,0
2016-10-25T18:20:58.076Z,0
2016-10-25T18:30:55.053Z,0
2016-10-25T18:35:51.494Z,0
2016-10-25T18:40:48.536Z,0
2016-10-25T18:45:45.013Z,0
2016-10-25T18:50:41.591Z,0
2016-10-25T18:55:38.463Z,0
2016-10-25T19:00:35.154Z,0
2016-10-25T19:05:31.658Z,0
2016-10-25T19:10:27.999Z,0
2016-10-25T19:15:24.623Z,0
2016-10-25T19:20:21.397Z,0
2016-10-25T19:25:17.913Z,0
2016-10-25T19:30:14.299Z,0
2016-10-25T19:35:11.000Z,0
2016-10-25T19:40:07.419Z,0
2016-10-25T19:45:04.860Z,0
2016-10-25T19:50:01.022Z,0
2016-10-25T19:55:00.120Z,0
2016-10-25T19:59:56.183Z,0
2016-10-25T20:04:52.361Z,0
2016-10-25T20:09:49.093Z,0
2016-10-25T20:14:45.542Z,0
2016-10-25T20:19:42.094Z,0
2016-10-25T20:24:38.355Z,0
2016-10-25T20:29:34.771Z,0
2016-10-25T20:34:31.392Z,0
2016-10-25T20:39:27.699Z,0
2016-10-25T20:44:24.321Z,0
2016-10-25T20:49:21.012Z,0
2016-10-25T20:54:17.506Z,0
2016-10-25T20:59:14.070Z,0
2016-10-25T21:04:10.850Z,0
2016-10-25T21:09:08.901Z,0
2016-10-25T21:14:05.119Z,0
2016-10-25T21:19:01.704Z,0
2016-10-25T21:23:58.364Z,0
2016-10-25T21:28:55.011Z,0
2016-10-25T21:33:51.108Z,0
2016-10-25T21:38:47.570Z,0
2016-10-25T21:43:44.020Z,0
2016-10-25T21:48:40.375Z,0
2016-10-25T21:53:37.170Z,0
2016-10-25T21:58:33.583Z,0
2016-10-25T22:03:30.043Z,0
2016-10-25T22:08:26.588Z,0
2016-10-25T22:13:23.253Z,0
2016-10-25T22:18:20.087Z,0
2016-10-25T22:23:17.653Z,0
2016-10-25T22:28:13.773Z,0
2016-10-25T22:33:10.750Z,0
2016-10-25T22:38:07.842Z,0
2016-10-25T22:43:03.992Z,0
2016-10-25T22:48:00.435Z,0
2016-10-25T22:52:59.393Z,0
2016-10-25T22:57:55.271Z,0
2016-10-25T23:02:51.455Z,0
2016-10-25T23:07:48.016Z,0
2016-10-25T23:12:44.475Z,0
2016-10-25T23:17:41.046Z,0
2016-10-25T23:22:38.136Z,0
2016-10-25T23:27:34.892Z,0
2016-10-25T23:32:31.394Z,0
2016-10-25T23:37:28.995Z,0
2016-10-25T23:42:25.639Z,0
2016-10-25T23:47:22.116Z,0
2016-10-25T23:52:18.394Z,0
2016-10-25T23:57:14.887Z,0
